sensor_id;sensor_type;location;lat;lon;timestamp;temperature;humidity
18777;DHT22;9517;51.174;4.160;2023-08-21T00:02:15;21.60;99.90
18777;DHT22;9517;51.174;4.160;2023-08-21T00:04:42;21.80;99.90
18777;DHT22;9517;51.174;4.160;2023-08-21T00:07:09;21.60;99.90
18777;DHT22;9517;51.174;4.160;2023-08-21T00:09:37;21.60;99.90
18777;DHT22;9517;51.174;4.160;2023-08-21T00:12:04;21.70;99.90
18777;DHT22;9517;51.174;4.160;2023-08-21T00:14:31;21.70;99.90
18777;DHT22;9517;51.174;4.160;2023-08-21T00:16:58;21.70;99.90
18777;DHT22;9517;51.174;4.160;2023-08-21T00:19:27;21.60;99.90
18777;DHT22;9517;51.174;4.160;2023-08-21T00:21:54;21.50;99.90
18777;DHT22;9517;51.174;4.160;2023-08-21T00:24:21;21.50;99.90
18777;DHT22;9517;51.174;4.160;2023-08-21T00:26:48;21.40;99.90
18777;DHT22;9517;51.174;4.160;2023-08-21T00:29:15;21.40;99.90
18777;DHT22;9517;51.174;4.160;2023-08-21T00:31:42;21.40;99.90
18777;DHT22;9517;51.174;4.160;2023-08-21T00:34:09;21.40;99.90
18777;DHT22;9517;51.174;4.160;2023-08-21T00:36:38;21.40;99.90
18777;DHT22;9517;51.174;4.160;2023-08-21T00:39:05;21.40;99.90
18777;DHT22;9517;51.174;4.160;2023-08-21T00:41:32;21.40;99.90
18777;DHT22;9517;51.174;4.160;2023-08-21T00:43:59;21.40;99.90
18777;DHT22;9517;51.174;4.160;2023-08-21T00:46:27;21.40;99.90
18777;DHT22;9517;51.174;4.160;2023-08-21T00:48:54;21.30;99.90
18777;DHT22;9517;51.174;4.160;2023-08-21T00:51:21;21.30;99.90
18777;DHT22;9517;51.174;4.160;2023-08-21T00:53:49;21.30;99.90
18777;DHT22;9517;51.174;4.160;2023-08-21T00:56:16;21.10;99.90
18777;DHT22;9517;51.174;4.160;2023-08-21T00:58:44;21.10;99.90
18777;DHT22;9517;51.174;4.160;2023-08-21T01:01:12;21.00;99.90
18777;DHT22;9517;51.174;4.160;2023-08-21T01:03:40;20.90;99.90
18777;DHT22;9517;51.174;4.160;2023-08-21T01:06:07;20.90;99.90
18777;DHT22;9517;51.174;4.160;2023-08-21T01:08:41;20.90;99.90
18777;DHT22;9517;51.174;4.160;2023-08-21T01:11:16;21.00;99.90
18777;DHT22;9517;51.174;4.160;2023-08-21T01:13:51;20.90;99.90
18777;DHT22;9517;51.174;4.160;2023-08-21T01:16:21;20.90;99.90
18777;DHT22;9517;51.174;4.160;2023-08-21T01:18:49;21.00;99.90
18777;DHT22;9517;51.174;4.160;2023-08-21T01:21:17;20.90;99.90
18777;DHT22;9517;51.174;4.160;2023-08-21T01:23:46;20.80;99.90
18777;DHT22;9517;51.174;4.160;2023-08-21T01:26:13;20.90;99.90
18777;DHT22;9517;51.174;4.160;2023-08-21T01:28:40;20.90;99.90
18777;DHT22;9517;51.174;4.160;2023-08-21T01:31:11;20.90;99.90
18777;DHT22;9517;51.174;4.160;2023-08-21T01:33:44;20.80;99.90
18777;DHT22;9517;51.174;4.160;2023-08-21T01:36:12;20.80;99.90
18777;DHT22;9517;51.174;4.160;2023-08-21T01:38:39;20.70;99.90
18777;DHT22;9517;51.174;4.160;2023-08-21T01:41:08;20.70;99.90
18777;DHT22;9517;51.174;4.160;2023-08-21T01:43:35;20.70;99.90
18777;DHT22;9517;51.174;4.160;2023-08-21T01:46:02;20.70;99.90
18777;DHT22;9517;51.174;4.160;2023-08-21T01:48:29;20.50;99.90
18777;DHT22;9517;51.174;4.160;2023-08-21T01:50:56;20.50;99.90
18777;DHT22;9517;51.174;4.160;2023-08-21T01:53:23;20.40;99.90
18777;DHT22;9517;51.174;4.160;2023-08-21T01:55:51;20.20;99.90
18777;DHT22;9517;51.174;4.160;2023-08-21T01:58:19;20.00;99.90
18777;DHT22;9517;51.174;4.160;2023-08-21T02:00:47;19.90;99.90
18777;DHT22;9517;51.174;4.160;2023-08-21T02:03:14;19.80;99.90
18777;DHT22;9517;51.174;4.160;2023-08-21T02:05:41;19.70;99.90
18777;DHT22;9517;51.174;4.160;2023-08-21T02:08:11;19.60;99.90
18777;DHT22;9517;51.174;4.160;2023-08-21T02:10:47;19.70;99.90
18777;DHT22;9517;51.174;4.160;2023-08-21T02:13:15;19.60;99.90
18777;DHT22;9517;51.174;4.160;2023-08-21T02:15:43;19.50;99.90
18777;DHT22;9517;51.174;4.160;2023-08-21T02:18:11;19.60;99.90
18777;DHT22;9517;51.174;4.160;2023-08-21T02:20:38;19.70;99.90
18777;DHT22;9517;51.174;4.160;2023-08-21T02:23:05;19.80;99.90
18777;DHT22;9517;51.174;4.160;2023-08-21T02:25:32;19.80;99.90
18777;DHT22;9517;51.174;4.160;2023-08-21T02:27:59;19.90;99.90
18777;DHT22;9517;51.174;4.160;2023-08-21T02:30:27;19.90;99.90
18777;DHT22;9517;51.174;4.160;2023-08-21T02:32:56;20.00;99.90
18777;DHT22;9517;51.174;4.160;2023-08-21T02:35:23;19.90;99.90
18777;DHT22;9517;51.174;4.160;2023-08-21T02:37:50;19.90;99.90
18777;DHT22;9517;51.174;4.160;2023-08-21T02:40:17;19.90;99.90
18777;DHT22;9517;51.174;4.160;2023-08-21T02:42:44;19.80;99.90
18777;DHT22;9517;51.174;4.160;2023-08-21T02:45:11;19.80;99.90
18777;DHT22;9517;51.174;4.160;2023-08-21T02:47:39;19.80;99.90
18777;DHT22;9517;51.174;4.160;2023-08-21T02:50:09;19.80;99.90
18777;DHT22;9517;51.174;4.160;2023-08-21T02:52:36;19.80;99.90
18777;DHT22;9517;51.174;4.160;2023-08-21T02:55:05;19.80;99.90
18777;DHT22;9517;51.174;4.160;2023-08-21T02:57:32;19.80;99.90
18777;DHT22;9517;51.174;4.160;2023-08-21T02:59:59;19.70;99.90
18777;DHT22;9517;51.174;4.160;2023-08-21T03:02:26;19.70;99.90
18777;DHT22;9517;51.174;4.160;2023-08-21T03:04:53;19.60;99.90
18777;DHT22;9517;51.174;4.160;2023-08-21T03:07:22;19.60;99.90
18777;DHT22;9517;51.174;4.160;2023-08-21T03:09:49;19.50;99.90
18777;DHT22;9517;51.174;4.160;2023-08-21T03:12:17;19.50;99.90
18777;DHT22;9517;51.174;4.160;2023-08-21T03:14:46;19.40;99.90
18777;DHT22;9517;51.174;4.160;2023-08-21T03:17:13;19.40;99.90
18777;DHT22;9517;51.174;4.160;2023-08-21T03:19:40;19.40;99.90
18777;DHT22;9517;51.174;4.160;2023-08-21T03:22:07;19.30;99.90
18777;DHT22;9517;51.174;4.160;2023-08-21T03:24:35;19.20;99.90
18777;DHT22;9517;51.174;4.160;2023-08-21T03:27:03;19.20;99.90
18777;DHT22;9517;51.174;4.160;2023-08-21T03:29:30;19.10;99.90
18777;DHT22;9517;51.174;4.160;2023-08-21T03:31:57;19.10;99.90
18777;DHT22;9517;51.174;4.160;2023-08-21T03:34:25;19.10;99.90
18777;DHT22;9517;51.174;4.160;2023-08-21T03:36:52;19.10;99.90
18777;DHT22;9517;51.174;4.160;2023-08-21T03:39:21;19.10;99.90
18777;DHT22;9517;51.174;4.160;2023-08-21T03:41:50;19.10;99.90
18777;DHT22;9517;51.174;4.160;2023-08-21T03:44:17;19.10;99.90
18777;DHT22;9517;51.174;4.160;2023-08-21T03:46:43;19.10;99.90
18777;DHT22;9517;51.174;4.160;2023-08-21T03:49:11;19.10;99.90
18777;DHT22;9517;51.174;4.160;2023-08-21T03:51:38;19.10;99.90
18777;DHT22;9517;51.174;4.160;2023-08-21T03:54:05;19.10;99.90
18777;DHT22;9517;51.174;4.160;2023-08-21T03:56:32;19.10;99.90
18777;DHT22;9517;51.174;4.160;2023-08-21T03:59:00;19.10;99.90
18777;DHT22;9517;51.174;4.160;2023-08-21T04:01:27;19.10;99.90
18777;DHT22;9517;51.174;4.160;2023-08-21T04:03:54;19.00;99.90
18777;DHT22;9517;51.174;4.160;2023-08-21T04:06:21;19.00;99.90
18777;DHT22;9517;51.174;4.160;2023-08-21T04:08:48;19.00;99.90
18777;DHT22;9517;51.174;4.160;2023-08-21T04:11:15;18.90;99.90
18777;DHT22;9517;51.174;4.160;2023-08-21T04:13:42;18.80;99.90
18777;DHT22;9517;51.174;4.160;2023-08-21T04:16:11;18.90;99.90
18777;DHT22;9517;51.174;4.160;2023-08-21T04:18:38;18.80;99.90
18777;DHT22;9517;51.174;4.160;2023-08-21T04:21:05;18.80;99.90
18777;DHT22;9517;51.174;4.160;2023-08-21T04:23:32;18.70;99.90
18777;DHT22;9517;51.174;4.160;2023-08-21T04:26:03;18.70;99.90
18777;DHT22;9517;51.174;4.160;2023-08-21T04:28:30;18.70;99.90
18777;DHT22;9517;51.174;4.160;2023-08-21T04:30:57;18.80;99.90
18777;DHT22;9517;51.174;4.160;2023-08-21T04:33:27;18.70;99.90
18777;DHT22;9517;51.174;4.160;2023-08-21T04:35:55;18.70;99.90
18777;DHT22;9517;51.174;4.160;2023-08-21T04:38:22;18.70;99.90
18777;DHT22;9517;51.174;4.160;2023-08-21T04:40:49;18.70;99.90
18777;DHT22;9517;51.174;4.160;2023-08-21T04:43:16;18.70;99.90
18777;DHT22;9517;51.174;4.160;2023-08-21T04:45:48;18.80;99.90
18777;DHT22;9517;51.174;4.160;2023-08-21T04:48:16;18.60;99.90
18777;DHT22;9517;51.174;4.160;2023-08-21T04:50:45;18.70;99.90
18777;DHT22;9517;51.174;4.160;2023-08-21T04:53:12;18.80;99.90
18777;DHT22;9517;51.174;4.160;2023-08-21T04:55:40;18.90;99.90
18777;DHT22;9517;51.174;4.160;2023-08-21T04:58:07;18.80;99.90
18777;DHT22;9517;51.174;4.160;2023-08-21T05:00:34;18.80;99.90
18777;DHT22;9517;51.174;4.160;2023-08-21T05:03:01;18.80;99.90
18777;DHT22;9517;51.174;4.160;2023-08-21T05:05:28;18.80;99.90
18777;DHT22;9517;51.174;4.160;2023-08-21T05:07:57;18.70;99.90
18777;DHT22;9517;51.174;4.160;2023-08-21T05:10:24;18.70;99.90
18777;DHT22;9517;51.174;4.160;2023-08-21T05:12:51;18.70;99.90
18777;DHT22;9517;51.174;4.160;2023-08-21T05:15:18;18.70;99.90
18777;DHT22;9517;51.174;4.160;2023-08-21T05:17:45;18.60;99.90
18777;DHT22;9517;51.174;4.160;2023-08-21T05:20:12;18.50;99.90
18777;DHT22;9517;51.174;4.160;2023-08-21T05:22:40;18.40;99.90
18777;DHT22;9517;51.174;4.160;2023-08-21T05:25:10;18.30;99.90
18777;DHT22;9517;51.174;4.160;2023-08-21T05:27:37;18.40;99.90
18777;DHT22;9517;51.174;4.160;2023-08-21T05:30:05;18.30;99.90
18777;DHT22;9517;51.174;4.160;2023-08-21T05:32:32;18.30;99.90
18777;DHT22;9517;51.174;4.160;2023-08-21T05:34:59;18.20;99.90
18777;DHT22;9517;51.174;4.160;2023-08-21T05:37:26;18.30;99.90
18777;DHT22;9517;51.174;4.160;2023-08-21T05:39:53;18.30;99.90
18777;DHT22;9517;51.174;4.160;2023-08-21T05:42:22;18.40;99.90
18777;DHT22;9517;51.174;4.160;2023-08-21T05:44:49;18.40;99.90
18777;DHT22;9517;51.174;4.160;2023-08-21T05:47:16;18.50;99.90
18777;DHT22;9517;51.174;4.160;2023-08-21T05:49:44;18.70;99.90
18777;DHT22;9517;51.174;4.160;2023-08-21T05:52:11;18.80;99.90
18777;DHT22;9517;51.174;4.160;2023-08-21T05:54:38;18.80;99.90
18777;DHT22;9517;51.174;4.160;2023-08-21T05:57:05;18.80;99.90
18777;DHT22;9517;51.174;4.160;2023-08-21T05:59:33;18.90;99.90
18777;DHT22;9517;51.174;4.160;2023-08-21T06:02:00;19.00;99.90
18777;DHT22;9517;51.174;4.160;2023-08-21T06:04:27;19.00;99.90
18777;DHT22;9517;51.174;4.160;2023-08-21T06:06:54;19.00;99.90
18777;DHT22;9517;51.174;4.160;2023-08-21T06:09:22;19.30;99.90
18777;DHT22;9517;51.174;4.160;2023-08-21T06:11:49;19.30;99.90
18777;DHT22;9517;51.174;4.160;2023-08-21T06:14:16;19.30;99.90
18777;DHT22;9517;51.174;4.160;2023-08-21T06:16:44;19.30;99.90
18777;DHT22;9517;51.174;4.160;2023-08-21T06:19:11;19.40;99.90
18777;DHT22;9517;51.174;4.160;2023-08-21T06:21:38;19.40;99.90
18777;DHT22;9517;51.174;4.160;2023-08-21T06:24:05;19.30;99.90
18777;DHT22;9517;51.174;4.160;2023-08-21T06:26:32;19.40;99.90
18777;DHT22;9517;51.174;4.160;2023-08-21T06:28:59;19.50;99.90
18777;DHT22;9517;51.174;4.160;2023-08-21T06:31:26;19.40;99.90
18777;DHT22;9517;51.174;4.160;2023-08-21T06:33:55;19.30;99.90
18777;DHT22;9517;51.174;4.160;2023-08-21T06:36:22;19.30;99.90
18777;DHT22;9517;51.174;4.160;2023-08-21T06:38:49;19.50;99.90
18777;DHT22;9517;51.174;4.160;2023-08-21T06:41:16;19.50;99.90
18777;DHT22;9517;51.174;4.160;2023-08-21T06:43:43;19.70;99.90
18777;DHT22;9517;51.174;4.160;2023-08-21T06:46:10;19.80;99.90
18777;DHT22;9517;51.174;4.160;2023-08-21T06:48:39;19.90;99.90
18777;DHT22;9517;51.174;4.160;2023-08-21T06:51:07;20.00;99.90
18777;DHT22;9517;51.174;4.160;2023-08-21T06:53:35;20.00;99.90
18777;DHT22;9517;51.174;4.160;2023-08-21T06:56:02;20.00;99.90
18777;DHT22;9517;51.174;4.160;2023-08-21T06:58:29;19.90;99.90
18777;DHT22;9517;51.174;4.160;2023-08-21T07:00:56;19.90;99.90
18777;DHT22;9517;51.174;4.160;2023-08-21T07:03:24;19.80;99.90
18777;DHT22;9517;51.174;4.160;2023-08-21T07:05:53;19.60;99.90
18777;DHT22;9517;51.174;4.160;2023-08-21T07:08:22;19.80;99.90
18777;DHT22;9517;51.174;4.160;2023-08-21T07:10:49;20.00;99.90
18777;DHT22;9517;51.174;4.160;2023-08-21T07:13:16;20.20;99.90
18777;DHT22;9517;51.174;4.160;2023-08-21T07:15:43;20.30;99.90
18777;DHT22;9517;51.174;4.160;2023-08-21T07:18:10;20.40;99.90
18777;DHT22;9517;51.174;4.160;2023-08-21T07:20:37;20.40;99.90
18777;DHT22;9517;51.174;4.160;2023-08-21T07:23:04;20.40;99.90
18777;DHT22;9517;51.174;4.160;2023-08-21T07:25:33;20.50;99.90
18777;DHT22;9517;51.174;4.160;2023-08-21T07:28:00;20.70;99.90
18777;DHT22;9517;51.174;4.160;2023-08-21T07:30:27;21.10;99.90
18777;DHT22;9517;51.174;4.160;2023-08-21T07:32:54;21.40;99.90
18777;DHT22;9517;51.174;4.160;2023-08-21T07:35:21;21.40;99.90
18777;DHT22;9517;51.174;4.160;2023-08-21T07:37:48;21.40;99.90
18777;DHT22;9517;51.174;4.160;2023-08-21T07:40:15;21.50;99.90
18777;DHT22;9517;51.174;4.160;2023-08-21T07:42:44;21.60;99.90
18777;DHT22;9517;51.174;4.160;2023-08-21T07:45:11;21.70;99.90
18777;DHT22;9517;51.174;4.160;2023-08-21T07:47:38;21.70;99.90
18777;DHT22;9517;51.174;4.160;2023-08-21T07:50:06;21.70;99.90
18777;DHT22;9517;51.174;4.160;2023-08-21T07:52:34;21.80;99.90
18777;DHT22;9517;51.174;4.160;2023-08-21T07:55:02;22.00;99.90
18777;DHT22;9517;51.174;4.160;2023-08-21T07:57:29;22.00;99.90
18777;DHT22;9517;51.174;4.160;2023-08-21T07:59:58;22.30;99.90
18777;DHT22;9517;51.174;4.160;2023-08-21T08:02:25;22.40;99.90
18777;DHT22;9517;51.174;4.160;2023-08-21T08:04:52;22.40;99.90
18777;DHT22;9517;51.174;4.160;2023-08-21T08:07:20;22.60;99.90
18777;DHT22;9517;51.174;4.160;2023-08-21T08:09:47;22.70;99.90
18777;DHT22;9517;51.174;4.160;2023-08-21T08:12:14;22.80;99.90
18777;DHT22;9517;51.174;4.160;2023-08-21T08:14:41;23.00;99.90
18777;DHT22;9517;51.174;4.160;2023-08-21T08:17:10;22.90;99.90
18777;DHT22;9517;51.174;4.160;2023-08-21T08:19:37;23.00;99.90
18777;DHT22;9517;51.174;4.160;2023-08-21T08:22:04;23.20;99.90
18777;DHT22;9517;51.174;4.160;2023-08-21T08:24:31;23.20;99.90
18777;DHT22;9517;51.174;4.160;2023-08-21T08:26:58;23.20;99.90
18777;DHT22;9517;51.174;4.160;2023-08-21T08:29:25;23.30;99.90
18777;DHT22;9517;51.174;4.160;2023-08-21T08:31:52;23.50;99.90
18777;DHT22;9517;51.174;4.160;2023-08-21T08:34:20;23.60;99.90
18777;DHT22;9517;51.174;4.160;2023-08-21T08:36:47;23.70;99.90
18777;DHT22;9517;51.174;4.160;2023-08-21T08:39:14;23.50;99.90
18777;DHT22;9517;51.174;4.160;2023-08-21T08:41:47;23.50;99.90
18777;DHT22;9517;51.174;4.160;2023-08-21T08:44:17;23.20;99.90
18777;DHT22;9517;51.174;4.160;2023-08-21T08:46:45;23.10;99.90
18777;DHT22;9517;51.174;4.160;2023-08-21T08:49:12;23.40;99.90
18777;DHT22;9517;51.174;4.160;2023-08-21T08:51:42;23.40;99.90
18777;DHT22;9517;51.174;4.160;2023-08-21T08:54:11;23.50;99.90
18777;DHT22;9517;51.174;4.160;2023-08-21T08:56:38;23.80;99.90
18777;DHT22;9517;51.174;4.160;2023-08-21T08:59:08;24.00;99.90
18777;DHT22;9517;51.174;4.160;2023-08-21T09:01:35;23.90;99.90
18777;DHT22;9517;51.174;4.160;2023-08-21T09:04:03;23.90;99.90
18777;DHT22;9517;51.174;4.160;2023-08-21T09:06:32;23.90;99.90
18777;DHT22;9517;51.174;4.160;2023-08-21T09:09:01;23.90;99.90
18777;DHT22;9517;51.174;4.160;2023-08-21T09:11:28;24.00;99.90
18777;DHT22;9517;51.174;4.160;2023-08-21T09:13:55;23.80;99.90
18777;DHT22;9517;51.174;4.160;2023-08-21T09:16:23;23.80;99.90
18777;DHT22;9517;51.174;4.160;2023-08-21T09:18:53;24.10;99.90
18777;DHT22;9517;51.174;4.160;2023-08-21T09:21:28;24.50;99.90
18777;DHT22;9517;51.174;4.160;2023-08-21T09:24:01;24.50;99.90
18777;DHT22;9517;51.174;4.160;2023-08-21T09:26:30;24.90;99.90
18777;DHT22;9517;51.174;4.160;2023-08-21T09:29:04;25.00;99.90
18777;DHT22;9517;51.174;4.160;2023-08-21T09:31:32;25.00;99.90
18777;DHT22;9517;51.174;4.160;2023-08-21T09:34:01;24.80;99.90
18777;DHT22;9517;51.174;4.160;2023-08-21T09:36:35;24.80;99.90
18777;DHT22;9517;51.174;4.160;2023-08-21T09:39:15;25.10;99.90
18777;DHT22;9517;51.174;4.160;2023-08-21T09:41:55;25.00;99.90
18777;DHT22;9517;51.174;4.160;2023-08-21T09:44:22;25.20;99.90
18777;DHT22;9517;51.174;4.160;2023-08-21T09:46:49;25.20;99.90
18777;DHT22;9517;51.174;4.160;2023-08-21T10:02:50;26.10;99.90
18777;DHT22;9517;51.174;4.160;2023-08-21T10:05:18;27.00;99.90
18777;DHT22;9517;51.174;4.160;2023-08-21T10:07:48;27.00;99.90
18777;DHT22;9517;51.174;4.160;2023-08-21T10:10:15;27.10;99.90
18777;DHT22;9517;51.174;4.160;2023-08-21T10:12:42;27.30;99.90
18777;DHT22;9517;51.174;4.160;2023-08-21T10:15:10;27.50;99.90
18777;DHT22;9517;51.174;4.160;2023-08-21T10:17:37;27.20;99.90
18777;DHT22;9517;51.174;4.160;2023-08-21T10:20:07;27.30;99.90
18777;DHT22;9517;51.174;4.160;2023-08-21T10:22:42;27.30;99.90
18777;DHT22;9517;51.174;4.160;2023-08-21T10:25:16;27.10;99.90
18777;DHT22;9517;51.174;4.160;2023-08-21T10:27:46;26.80;99.90
18777;DHT22;9517;51.174;4.160;2023-08-21T10:30:20;26.70;99.90
18777;DHT22;9517;51.174;4.160;2023-08-21T10:32:49;27.40;99.90
18777;DHT22;9517;51.174;4.160;2023-08-21T10:35:20;27.30;99.90
18777;DHT22;9517;51.174;4.160;2023-08-21T10:38:09;27.50;99.90
18777;DHT22;9517;51.174;4.160;2023-08-21T10:40:37;27.90;99.90
18777;DHT22;9517;51.174;4.160;2023-08-21T10:43:05;28.60;99.90
18777;DHT22;9517;51.174;4.160;2023-08-21T10:45:55;28.50;99.90
18777;DHT22;9517;51.174;4.160;2023-08-21T10:48:22;28.50;99.90
18777;DHT22;9517;51.174;4.160;2023-08-21T10:50:50;28.90;99.90
18777;DHT22;9517;51.174;4.160;2023-08-21T10:53:18;29.60;99.90
18777;DHT22;9517;51.174;4.160;2023-08-21T10:55:53;29.70;99.90
18777;DHT22;9517;51.174;4.160;2023-08-21T10:58:20;29.70;99.90
18777;DHT22;9517;51.174;4.160;2023-08-21T11:00:55;29.30;99.90
18777;DHT22;9517;51.174;4.160;2023-08-21T11:03:22;30.20;99.90
18777;DHT22;9517;51.174;4.160;2023-08-21T11:06:04;31.40;99.90
18777;DHT22;9517;51.174;4.160;2023-08-21T11:08:32;32.10;99.90
18777;DHT22;9517;51.174;4.160;2023-08-21T11:11:00;32.10;99.90
18777;DHT22;9517;51.174;4.160;2023-08-21T11:13:27;29.70;99.90
18777;DHT22;9517;51.174;4.160;2023-08-21T11:16:00;29.60;99.90
18777;DHT22;9517;51.174;4.160;2023-08-21T11:18:32;31.10;99.90
18777;DHT22;9517;51.174;4.160;2023-08-21T11:21:07;31.30;99.90
18777;DHT22;9517;51.174;4.160;2023-08-21T11:23:35;31.00;99.90
18777;DHT22;9517;51.174;4.160;2023-08-21T11:26:05;31.50;99.90
18777;DHT22;9517;51.174;4.160;2023-08-21T11:28:33;33.00;99.90
18777;DHT22;9517;51.174;4.160;2023-08-21T11:31:00;34.00;99.90
18777;DHT22;9517;51.174;4.160;2023-08-21T11:33:28;34.50;99.90
18777;DHT22;9517;51.174;4.160;2023-08-21T11:35:55;32.50;99.90
18777;DHT22;9517;51.174;4.160;2023-08-21T11:38:26;30.60;99.90
18777;DHT22;9517;51.174;4.160;2023-08-21T11:40:54;30.50;99.90
18777;DHT22;9517;51.174;4.160;2023-08-21T11:43:21;31.20;99.90
18777;DHT22;9517;51.174;4.160;2023-08-21T11:45:48;33.30;99.90
18777;DHT22;9517;51.174;4.160;2023-08-21T11:48:15;34.70;99.90
18777;DHT22;9517;51.174;4.160;2023-08-21T11:50:48;36.50;99.90
18777;DHT22;9517;51.174;4.160;2023-08-21T11:53:35;36.50;99.90
18777;DHT22;9517;51.174;4.160;2023-08-21T11:56:03;34.90;99.00
18777;DHT22;9517;51.174;4.160;2023-08-21T11:58:30;33.50;99.90
18777;DHT22;9517;51.174;4.160;2023-08-21T12:01:02;33.70;99.90
18777;DHT22;9517;51.174;4.160;2023-08-21T12:03:30;33.60;99.90
18777;DHT22;9517;51.174;4.160;2023-08-21T12:05:57;33.50;99.90
18777;DHT22;9517;51.174;4.160;2023-08-21T12:08:26;33.90;99.90
18777;DHT22;9517;51.174;4.160;2023-08-21T12:10:54;34.00;99.90
18777;DHT22;9517;51.174;4.160;2023-08-21T12:13:21;35.50;99.90
18777;DHT22;9517;51.174;4.160;2023-08-21T12:15:48;35.70;99.90
18777;DHT22;9517;51.174;4.160;2023-08-21T12:18:14;35.00;99.10
18777;DHT22;9517;51.174;4.160;2023-08-21T12:20:41;35.20;97.60
18777;DHT22;9517;51.174;4.160;2023-08-21T12:23:08;35.90;97.40
18777;DHT22;9517;51.174;4.160;2023-08-21T12:25:35;37.20;97.50
18777;DHT22;9517;51.174;4.160;2023-08-21T12:28:05;36.00;95.10
18777;DHT22;9517;51.174;4.160;2023-08-21T12:30:32;34.30;98.40
18777;DHT22;9517;51.174;4.160;2023-08-21T12:32:59;33.30;99.90
18777;DHT22;9517;51.174;4.160;2023-08-21T12:35:26;31.40;99.90
18777;DHT22;9517;51.174;4.160;2023-08-21T12:37:56;30.90;99.90
18777;DHT22;9517;51.174;4.160;2023-08-21T12:40:23;31.40;99.90
18777;DHT22;9517;51.174;4.160;2023-08-21T12:42:50;32.30;99.90
18777;DHT22;9517;51.174;4.160;2023-08-21T12:45:19;33.50;99.90
18777;DHT22;9517;51.174;4.160;2023-08-21T12:47:45;35.20;98.20
18777;DHT22;9517;51.174;4.160;2023-08-21T12:50:13;36.30;97.60
18777;DHT22;9517;51.174;4.160;2023-08-21T12:52:40;37.60;95.60
18777;DHT22;9517;51.174;4.160;2023-08-21T12:55:07;38.40;98.20
18777;DHT22;9517;51.174;4.160;2023-08-21T12:57:34;38.20;95.20
18777;DHT22;9517;51.174;4.160;2023-08-21T13:00:01;37.90;93.90
18777;DHT22;9517;51.174;4.160;2023-08-21T13:02:30;38.40;93.20
18777;DHT22;9517;51.174;4.160;2023-08-21T13:04:57;38.40;93.60
18777;DHT22;9517;51.174;4.160;2023-08-21T13:07:23;38.00;91.80
18777;DHT22;9517;51.174;4.160;2023-08-21T13:09:50;37.50;90.50
18777;DHT22;9517;51.174;4.160;2023-08-21T13:12:17;36.20;91.30
18777;DHT22;9517;51.174;4.160;2023-08-21T13:14:44;36.20;93.40
18777;DHT22;9517;51.174;4.160;2023-08-21T13:17:13;36.50;92.40
18777;DHT22;9517;51.174;4.160;2023-08-21T13:19:42;37.00;91.50
18777;DHT22;9517;51.174;4.160;2023-08-21T13:22:09;36.00;90.90
18777;DHT22;9517;51.174;4.160;2023-08-21T13:24:36;35.90;93.50
18777;DHT22;9517;51.174;4.160;2023-08-21T13:27:03;35.20;93.70
18777;DHT22;9517;51.174;4.160;2023-08-21T13:29:31;33.20;95.10
18777;DHT22;9517;51.174;4.160;2023-08-21T13:31:58;32.20;96.50
18777;DHT22;9517;51.174;4.160;2023-08-21T13:34:25;31.60;97.80
18777;DHT22;9517;51.174;4.160;2023-08-21T13:36:54;31.50;97.40
18777;DHT22;9517;51.174;4.160;2023-08-21T13:39:21;32.80;99.90
18777;DHT22;9517;51.174;4.160;2023-08-21T13:41:48;34.60;95.20
18777;DHT22;9517;51.174;4.160;2023-08-21T13:44:16;34.80;95.50
18777;DHT22;9517;51.174;4.160;2023-08-21T13:46:43;34.40;95.80
18777;DHT22;9517;51.174;4.160;2023-08-21T13:49:10;34.60;97.00
18777;DHT22;9517;51.174;4.160;2023-08-21T13:51:37;33.90;95.10
18777;DHT22;9517;51.174;4.160;2023-08-21T13:54:07;33.50;98.60
18777;DHT22;9517;51.174;4.160;2023-08-21T13:56:34;34.50;96.50
18777;DHT22;9517;51.174;4.160;2023-08-21T13:59:01;36.10;97.80
18777;DHT22;9517;51.174;4.160;2023-08-21T14:01:28;37.30;96.90
18777;DHT22;9517;51.174;4.160;2023-08-21T14:03:55;36.90;95.20
18777;DHT22;9517;51.174;4.160;2023-08-21T14:06:22;35.60;95.30
18777;DHT22;9517;51.174;4.160;2023-08-21T14:08:50;35.30;96.20
18777;DHT22;9517;51.174;4.160;2023-08-21T14:11:18;34.80;97.80
18777;DHT22;9517;51.174;4.160;2023-08-21T14:13:46;34.50;97.90
18777;DHT22;9517;51.174;4.160;2023-08-21T14:16:13;35.20;98.60
18777;DHT22;9517;51.174;4.160;2023-08-21T14:18:40;34.90;96.60
18777;DHT22;9517;51.174;4.160;2023-08-21T14:21:07;33.80;98.60
18777;DHT22;9517;51.174;4.160;2023-08-21T14:23:34;33.70;99.70
18777;DHT22;9517;51.174;4.160;2023-08-21T14:26:01;32.90;99.20
18777;DHT22;9517;51.174;4.160;2023-08-21T14:28:30;32.30;99.90
18777;DHT22;9517;51.174;4.160;2023-08-21T14:30:57;31.60;99.90
18777;DHT22;9517;51.174;4.160;2023-08-21T14:33:25;31.30;99.90
18777;DHT22;9517;51.174;4.160;2023-08-21T14:35:52;31.40;99.90
18777;DHT22;9517;51.174;4.160;2023-08-21T14:38:19;32.60;99.90
18777;DHT22;9517;51.174;4.160;2023-08-21T14:40:46;34.30;99.90
18777;DHT22;9517;51.174;4.160;2023-08-21T14:43:13;35.90;99.90
18777;DHT22;9517;51.174;4.160;2023-08-21T14:45:42;36.70;97.40
18777;DHT22;9517;51.174;4.160;2023-08-21T14:48:09;36.70;97.20
18777;DHT22;9517;51.174;4.160;2023-08-21T14:50:36;36.50;96.60
18777;DHT22;9517;51.174;4.160;2023-08-21T14:53:03;36.10;98.00
18777;DHT22;9517;51.174;4.160;2023-08-21T14:55:30;36.10;97.70
18777;DHT22;9517;51.174;4.160;2023-08-21T14:57:57;36.20;98.40
18777;DHT22;9517;51.174;4.160;2023-08-21T15:00:24;37.20;97.90
18777;DHT22;9517;51.174;4.160;2023-08-21T15:02:53;37.30;96.70
18777;DHT22;9517;51.174;4.160;2023-08-21T15:05:20;36.70;96.00
18777;DHT22;9517;51.174;4.160;2023-08-21T15:07:47;36.00;96.70
18777;DHT22;9517;51.174;4.160;2023-08-21T15:10:14;36.30;96.50
18777;DHT22;9517;51.174;4.160;2023-08-21T15:12:41;36.30;96.10
18777;DHT22;9517;51.174;4.160;2023-08-21T15:15:09;37.00;96.20
18777;DHT22;9517;51.174;4.160;2023-08-21T15:17:37;37.30;95.50
18777;DHT22;9517;51.174;4.160;2023-08-21T15:20:07;37.40;97.90
18777;DHT22;9517;51.174;4.160;2023-08-21T15:22:34;38.10;94.80
18777;DHT22;9517;51.174;4.160;2023-08-21T15:25:01;37.80;94.50
18777;DHT22;9517;51.174;4.160;2023-08-21T15:27:29;37.40;94.40
18777;DHT22;9517;51.174;4.160;2023-08-21T15:29:56;36.90;95.00
18777;DHT22;9517;51.174;4.160;2023-08-21T15:32:23;36.80;95.00
18777;DHT22;9517;51.174;4.160;2023-08-21T15:34:50;37.20;98.60
18777;DHT22;9517;51.174;4.160;2023-08-21T15:37:18;37.50;95.20
18777;DHT22;9517;51.174;4.160;2023-08-21T15:39:45;37.00;95.30
18777;DHT22;9517;51.174;4.160;2023-08-21T15:42:13;37.20;95.60
18777;DHT22;9517;51.174;4.160;2023-08-21T15:44:40;37.10;95.00
18777;DHT22;9517;51.174;4.160;2023-08-21T15:47:07;37.60;94.70
18777;DHT22;9517;51.174;4.160;2023-08-21T15:49:34;37.10;95.40
18777;DHT22;9517;51.174;4.160;2023-08-21T15:52:03;36.70;94.90
18777;DHT22;9517;51.174;4.160;2023-08-21T15:54:32;36.30;97.00
18777;DHT22;9517;51.174;4.160;2023-08-21T15:57:00;36.70;96.50
18777;DHT22;9517;51.174;4.160;2023-08-21T15:59:27;36.90;97.10
18777;DHT22;9517;51.174;4.160;2023-08-21T16:01:54;37.00;96.90
18777;DHT22;9517;51.174;4.160;2023-08-21T16:04:21;37.00;96.50